sensor_id;sensor_type;location;lat;lon;timestamp;pressure;altitude;pressure_sealevel;temperature;humidity
77240;BME280;66258;53.170;-2.240;2023-03-23T00:00:35;97824.06;;;15.90;nan
77240;BME280;66258;53.170;-2.240;2023-03-23T00:03:02;97831.59;;;16.10;nan
77240;BME280;66258;53.170;-2.240;2023-03-23T00:05:28;97828.22;;;16.35;nan
77240;BME280;66258;53.170;-2.240;2023-03-23T00:07:56;97833.78;;;16.13;nan
77240;BME280;66258;53.170;-2.240;2023-03-23T00:10:22;97839.56;;;16.17;nan
77240;BME280;66258;53.170;-2.240;2023-03-23T00:12:48;97840.25;;;16.39;nan
77240;BME280;66258;53.170;-2.240;2023-03-23T00:15:20;97847.50;;;16.23;nan
77240;BME280;66258;53.170;-2.240;2023-03-23T00:17:46;97849.50;;;15.96;nan
77240;BME280;66258;53.170;-2.240;2023-03-23T00:20:13;97856.97;;;16.10;nan
77240;BME280;66258;53.170;-2.240;2023-03-23T00:22:39;97856.38;;;15.71;nan
77240;BME280;66258;53.170;-2.240;2023-03-23T00:25:05;97865.97;;;15.25;nan
77240;BME280;66258;53.170;-2.240;2023-03-23T00:27:31;97874.91;;;14.99;nan
77240;BME280;66258;53.170;-2.240;2023-03-23T00:29:57;97872.75;;;15.01;nan
77240;BME280;66258;53.170;-2.240;2023-03-23T00:32:26;97879.66;;;15.30;nan
77240;BME280;66258;53.170;-2.240;2023-03-23T00:34:51;97891.44;;;15.36;nan
77240;BME280;66258;53.170;-2.240;2023-03-23T00:37:17;97903.16;;;15.58;nan
77240;BME280;66258;53.170;-2.240;2023-03-23T00:39:45;97904.16;;;15.52;nan
77240;BME280;66258;53.170;-2.240;2023-03-23T00:42:13;97903.44;;;15.62;nan
77240;BME280;66258;53.170;-2.240;2023-03-23T00:44:39;97915.34;;;15.77;nan
77240;BME280;66258;53.170;-2.240;2023-03-23T00:47:06;97925.06;;;15.95;nan
77240;BME280;66258;53.170;-2.240;2023-03-23T00:49:33;97920.19;;;15.97;nan
77240;BME280;66258;53.170;-2.240;2023-03-23T00:51:59;97921.19;;;15.64;nan
77240;BME280;66258;53.170;-2.240;2023-03-23T00:54:25;97920.91;;;15.88;nan
77240;BME280;66258;53.170;-2.240;2023-03-23T00:56:52;97921.09;;;15.81;nan
77240;BME280;66258;53.170;-2.240;2023-03-23T00:59:18;97926.00;;;15.79;nan
77240;BME280;66258;53.170;-2.240;2023-03-23T01:01:45;97918.41;;;15.59;nan
77240;BME280;66258;53.170;-2.240;2023-03-23T01:04:10;97910.47;;;15.09;nan
77240;BME280;66258;53.170;-2.240;2023-03-23T01:06:42;97922.97;;;15.54;nan
77240;BME280;66258;53.170;-2.240;2023-03-23T01:09:10;97922.97;;;15.54;nan
77240;BME280;66258;53.170;-2.240;2023-03-23T01:11:37;97924.97;;;15.58;nan
77240;BME280;66258;53.170;-2.240;2023-03-23T01:14:04;97923.06;;;15.37;nan
77240;BME280;66258;53.170;-2.240;2023-03-23T01:16:30;97935.66;;;15.21;nan
77240;BME280;66258;53.170;-2.240;2023-03-23T01:18:56;97931.53;;;15.40;nan
77240;BME280;66258;53.170;-2.240;2023-03-23T01:21:23;97943.81;;;15.38;nan
77240;BME280;66258;53.170;-2.240;2023-03-23T01:23:51;97936.50;;;15.43;nan
77240;BME280;66258;53.170;-2.240;2023-03-23T01:26:19;97941.19;;;15.48;nan
77240;BME280;66258;53.170;-2.240;2023-03-23T01:28:46;97942.84;;;15.27;nan
77240;BME280;66258;53.170;-2.240;2023-03-23T01:31:14;97951.44;;;15.41;nan
77240;BME280;66258;53.170;-2.240;2023-03-23T01:33:41;97960.09;;;15.33;nan
77240;BME280;66258;53.170;-2.240;2023-03-23T01:36:11;97969.03;;;15.28;nan
77240;BME280;66258;53.170;-2.240;2023-03-23T01:38:37;97974.53;;;15.11;nan
77240;BME280;66258;53.170;-2.240;2023-03-23T01:41:04;97979.59;;;15.25;nan
77240;BME280;66258;53.170;-2.240;2023-03-23T01:43:31;97982.97;;;15.32;nan
77240;BME280;66258;53.170;-2.240;2023-03-23T01:45:57;97984.34;;;15.12;nan
77240;BME280;66258;53.170;-2.240;2023-03-23T01:48:25;97979.59;;;15.03;nan
77240;BME280;66258;53.170;-2.240;2023-03-23T01:50:56;97986.34;;;15.17;nan
77240;BME280;66258;53.170;-2.240;2023-03-23T01:53:27;97988.50;;;15.37;nan
77240;BME280;66258;53.170;-2.240;2023-03-23T01:55:55;97985.25;;;15.40;nan
77240;BME280;66258;53.170;-2.240;2023-03-23T01:58:28;97991.72;;;15.34;nan
77240;BME280;66258;53.170;-2.240;2023-03-23T02:00:58;97990.50;;;15.25;nan
77240;BME280;66258;53.170;-2.240;2023-03-23T02:03:24;97988.84;;;15.24;nan
77240;BME280;66258;53.170;-2.240;2023-03-23T02:05:51;97994.78;;;14.99;nan
77240;BME280;66258;53.170;-2.240;2023-03-23T02:08:18;97991.88;;;15.05;nan
77240;BME280;66258;53.170;-2.240;2023-03-23T02:10:45;97993.88;;;15.32;nan
77240;BME280;66258;53.170;-2.240;2023-03-23T02:13:12;97994.81;;;15.21;nan
77240;BME280;66258;53.170;-2.240;2023-03-23T02:15:49;97987.28;;;15.28;nan
77240;BME280;66258;53.170;-2.240;2023-03-23T02:18:28;97981.81;;;15.28;nan
77240;BME280;66258;53.170;-2.240;2023-03-23T02:21:23;97975.38;;;15.34;nan
77240;BME280;66258;53.170;-2.240;2023-03-23T02:26:57;97973.78;;;15.16;nan
77240;BME280;66258;53.170;-2.240;2023-03-23T02:29:53;97974.06;;;14.98;nan
77240;BME280;66258;53.170;-2.240;2023-03-23T02:32:49;97974.09;;;14.81;nan
77240;BME280;66258;53.170;-2.240;2023-03-23T02:35:27;97979.09;;;15.06;nan
77240;BME280;66258;53.170;-2.240;2023-03-23T02:37:59;97978.25;;;15.05;nan
77240;BME280;66258;53.170;-2.240;2023-03-23T02:40:30;97979.28;;;15.21;nan
77240;BME280;66258;53.170;-2.240;2023-03-23T02:43:00;97980.72;;;15.07;nan
77240;BME280;66258;53.170;-2.240;2023-03-23T02:45:29;97987.94;;;15.18;nan
77240;BME280;66258;53.170;-2.240;2023-03-23T02:47:57;97998.44;;;15.26;nan
77240;BME280;66258;53.170;-2.240;2023-03-23T02:50:28;97997.31;;;15.05;nan
77240;BME280;66258;53.170;-2.240;2023-03-23T02:52:56;98004.59;;;15.17;nan
77240;BME280;66258;53.170;-2.240;2023-03-23T02:55:23;98007.59;;;15.20;nan
77240;BME280;66258;53.170;-2.240;2023-03-23T02:57:50;98008.63;;;15.14;nan
77240;BME280;66258;53.170;-2.240;2023-03-23T03:00:18;98001.22;;;15.09;nan
77240;BME280;66258;53.170;-2.240;2023-03-23T03:02:47;98019.03;;;15.00;nan
77240;BME280;66258;53.170;-2.240;2023-03-23T03:08:15;98018.72;;;14.97;nan
77240;BME280;66258;53.170;-2.240;2023-03-23T03:10:50;98012.16;;;14.93;nan
77240;BME280;66258;53.170;-2.240;2023-03-23T03:13:25;98015.25;;;15.01;nan
77240;BME280;66258;53.170;-2.240;2023-03-23T03:15:59;98018.16;;;14.95;nan
77240;BME280;66258;53.170;-2.240;2023-03-23T03:18:30;98016.19;;;14.90;nan
77240;BME280;66258;53.170;-2.240;2023-03-23T03:21:02;98017.75;;;14.86;nan
77240;BME280;66258;53.170;-2.240;2023-03-23T03:23:34;98008.84;;;14.91;nan
77240;BME280;66258;53.170;-2.240;2023-03-23T03:26:09;98007.94;;;14.85;nan
77240;BME280;66258;53.170;-2.240;2023-03-23T03:28:38;98006.19;;;14.79;nan
77240;BME280;66258;53.170;-2.240;2023-03-23T03:31:07;98005.75;;;15.04;nan
77240;BME280;66258;53.170;-2.240;2023-03-23T03:33:34;98007.31;;;15.17;nan
77240;BME280;66258;53.170;-2.240;2023-03-23T03:36:03;98013.44;;;15.07;nan
77240;BME280;66258;53.170;-2.240;2023-03-23T03:38:41;98010.66;;;15.24;nan
77240;BME280;66258;53.170;-2.240;2023-03-23T03:41:07;98000.75;;;15.18;nan
77240;BME280;66258;53.170;-2.240;2023-03-23T03:43:33;98016.22;;;15.12;nan
77240;BME280;66258;53.170;-2.240;2023-03-23T03:46:00;98018.16;;;15.33;nan
77240;BME280;66258;53.170;-2.240;2023-03-23T03:48:26;98014.44;;;15.23;nan
77240;BME280;66258;53.170;-2.240;2023-03-23T03:50:54;98015.19;;;15.18;nan
77240;BME280;66258;53.170;-2.240;2023-03-23T03:53:21;98013.53;;;15.34;nan
77240;BME280;66258;53.170;-2.240;2023-03-23T03:55:49;98013.47;;;15.29;nan
77240;BME280;66258;53.170;-2.240;2023-03-23T03:58:15;98016.59;;;15.37;nan
77240;BME280;66258;53.170;-2.240;2023-03-23T04:00:42;98009.81;;;15.23;nan
77240;BME280;66258;53.170;-2.240;2023-03-23T04:03:10;98009.88;;;15.06;nan
77240;BME280;66258;53.170;-2.240;2023-03-23T04:05:35;98009.47;;;14.98;nan
77240;BME280;66258;53.170;-2.240;2023-03-23T04:08:01;98001.56;;;14.96;nan
77240;BME280;66258;53.170;-2.240;2023-03-23T04:10:28;98012.31;;;14.86;nan
77240;BME280;66258;53.170;-2.240;2023-03-23T04:12:58;98005.78;;;14.87;nan
77240;BME280;66258;53.170;-2.240;2023-03-23T04:15:25;98004.38;;;14.85;nan
77240;BME280;66258;53.170;-2.240;2023-03-23T04:17:51;98001.81;;;14.95;nan
77240;BME280;66258;53.170;-2.240;2023-03-23T04:20:17;97998.94;;;14.85;nan
77240;BME280;66258;53.170;-2.240;2023-03-23T04:22:44;97991.91;;;14.89;nan
77240;BME280;66258;53.170;-2.240;2023-03-23T04:25:11;98009.50;;;14.81;nan
77240;BME280;66258;53.170;-2.240;2023-03-23T04:27:38;98008.09;;;14.95;nan
77240;BME280;66258;53.170;-2.240;2023-03-23T04:30:07;98008.34;;;14.94;nan
77240;BME280;66258;53.170;-2.240;2023-03-23T04:32:33;98014.88;;;14.93;nan
77240;BME280;66258;53.170;-2.240;2023-03-23T04:35:00;98013.09;;;15.03;nan
77240;BME280;66258;53.170;-2.240;2023-03-23T04:37:28;98006.06;;;15.07;nan
77240;BME280;66258;53.170;-2.240;2023-03-23T04:39:54;98005.16;;;15.02;nan
77240;BME280;66258;53.170;-2.240;2023-03-23T04:42:21;98009.66;;;14.91;nan
77240;BME280;66258;53.170;-2.240;2023-03-23T04:44:46;98014.34;;;15.12;nan
77240;BME280;66258;53.170;-2.240;2023-03-23T04:47:14;98008.22;;;15.05;nan
77240;BME280;66258;53.170;-2.240;2023-03-23T04:49:40;98006.69;;;14.93;nan
77240;BME280;66258;53.170;-2.240;2023-03-23T04:52:06;98010.00;;;14.95;nan
77240;BME280;66258;53.170;-2.240;2023-03-23T04:54:33;98013.69;;;15.05;nan
77240;BME280;66258;53.170;-2.240;2023-03-23T04:56:59;98013.59;;;15.00;nan
77240;BME280;66258;53.170;-2.240;2023-03-23T04:59:25;98009.56;;;15.03;nan
77240;BME280;66258;53.170;-2.240;2023-03-23T05:01:51;98017.91;;;14.96;nan
77240;BME280;66258;53.170;-2.240;2023-03-23T05:04:30;98010.13;;;15.05;nan
77240;BME280;66258;53.170;-2.240;2023-03-23T05:06:58;98010.81;;;14.95;nan
77240;BME280;66258;53.170;-2.240;2023-03-23T05:09:25;98015.06;;;15.08;nan
77240;BME280;66258;53.170;-2.240;2023-03-23T05:11:51;98020.88;;;14.95;nan
77240;BME280;66258;53.170;-2.240;2023-03-23T05:14:18;98018.00;;;14.85;nan
77240;BME280;66258;53.170;-2.240;2023-03-23T05:16:44;98021.72;;;14.95;nan
77240;BME280;66258;53.170;-2.240;2023-03-23T05:19:11;98028.28;;;15.16;nan
77240;BME280;66258;53.170;-2.240;2023-03-23T05:21:38;98016.00;;;14.97;nan
77240;BME280;66258;53.170;-2.240;2023-03-23T05:24:05;98012.16;;;14.93;nan
77240;BME280;66258;53.170;-2.240;2023-03-23T05:26:33;98014.38;;;14.96;nan
77240;BME280;66258;53.170;-2.240;2023-03-23T05:28:59;98011.66;;;14.79;nan
77240;BME280;66258;53.170;-2.240;2023-03-23T05:31:25;98010.00;;;14.95;nan
77240;BME280;66258;53.170;-2.240;2023-03-23T05:33:52;98006.94;;;14.91;nan
77240;BME280;66258;53.170;-2.240;2023-03-23T05:36:18;98012.69;;;15.11;nan
77240;BME280;66258;53.170;-2.240;2023-03-23T05:38:46;98004.78;;;14.93;nan
77240;BME280;66258;53.170;-2.240;2023-03-23T05:41:13;97993.03;;;15.09;nan
77240;BME280;66258;53.170;-2.240;2023-03-23T05:43:39;97990.69;;;14.96;nan
77240;BME280;66258;53.170;-2.240;2023-03-23T05:46:06;97992.03;;;15.16;nan
77240;BME280;66258;53.170;-2.240;2023-03-23T05:48:33;97999.75;;;15.24;nan
77240;BME280;66258;53.170;-2.240;2023-03-23T05:51:00;97990.50;;;15.25;nan
77240;BME280;66258;53.170;-2.240;2023-03-23T05:53:26;97998.31;;;15.38;nan
77240;BME280;66258;53.170;-2.240;2023-03-23T05:55:58;97993.88;;;15.32;nan
77240;BME280;66258;53.170;-2.240;2023-03-23T05:58:24;97992.56;;;15.34;nan
77240;BME280;66258;53.170;-2.240;2023-03-23T06:00:50;98001.56;;;15.35;nan
77240;BME280;66258;53.170;-2.240;2023-03-23T06:03:17;98001.97;;;15.27;nan
77240;BME280;66258;53.170;-2.240;2023-03-23T06:05:44;97996.13;;;15.40;nan
77240;BME280;66258;53.170;-2.240;2023-03-23T06:08:11;98002.94;;;15.37;nan
77240;BME280;66258;53.170;-2.240;2023-03-23T06:10:37;97999.94;;;15.39;nan
77240;BME280;66258;53.170;-2.240;2023-03-23T06:13:08;97998.81;;;15.35;nan
77240;BME280;66258;53.170;-2.240;2023-03-23T06:15:34;97993.81;;;15.48;nan
77240;BME280;66258;53.170;-2.240;2023-03-23T06:18:01;97982.47;;;15.35;nan
77240;BME280;66258;53.170;-2.240;2023-03-23T06:20:28;97973.13;;;15.53;nan
77240;BME280;66258;53.170;-2.240;2023-03-23T06:22:54;97970.16;;;15.32;nan
77240;BME280;66258;53.170;-2.240;2023-03-23T06:25:20;97972.25;;;15.69;nan
77240;BME280;66258;53.170;-2.240;2023-03-23T06:27:46;97970.09;;;15.71;nan
77240;BME280;66258;53.170;-2.240;2023-03-23T06:30:14;97982.59;;;15.67;nan
77240;BME280;66258;53.170;-2.240;2023-03-23T06:32:41;97983.44;;;15.94;nan
77240;BME280;66258;53.170;-2.240;2023-03-23T06:35:14;97982.56;;;15.89;nan
77240;BME280;66258;53.170;-2.240;2023-03-23T06:37:41;97985.78;;;15.86;nan
77240;BME280;66258;53.170;-2.240;2023-03-23T06:40:09;97991.13;;;15.97;nan
77240;BME280;66258;53.170;-2.240;2023-03-23T06:42:35;97984.94;;;16.07;nan
77240;BME280;66258;53.170;-2.240;2023-03-23T06:45:01;97992.34;;;15.85;nan
77240;BME280;66258;53.170;-2.240;2023-03-23T06:47:30;97987.03;;;15.51;nan
77240;BME280;66258;53.170;-2.240;2023-03-23T06:49:56;97981.00;;;15.71;nan
77240;BME280;66258;53.170;-2.240;2023-03-23T06:52:23;97986.88;;;15.85;nan
77240;BME280;66258;53.170;-2.240;2023-03-23T06:54:52;97979.38;;;15.97;nan
77240;BME280;66258;53.170;-2.240;2023-03-23T06:57:20;97987.19;;;16.15;nan
77240;BME280;66258;53.170;-2.240;2023-03-23T06:59:46;97997.75;;;16.06;nan
77240;BME280;66258;53.170;-2.240;2023-03-23T07:02:14;97994.06;;;16.18;nan
77240;BME280;66258;53.170;-2.240;2023-03-23T07:04:46;97999.44;;;16.39;nan
77240;BME280;66258;53.170;-2.240;2023-03-23T07:07:12;97999.59;;;16.28;nan
77240;BME280;66258;53.170;-2.240;2023-03-23T07:09:38;97991.81;;;16.41;nan
77240;BME280;66258;53.170;-2.240;2023-03-23T07:12:04;97984.53;;;16.20;nan
77240;BME280;66258;53.170;-2.240;2023-03-23T07:14:30;97982.38;;;15.95;nan
77240;BME280;66258;53.170;-2.240;2023-03-23T07:16:56;97976.69;;;16.02;nan
77240;BME280;66258;53.170;-2.240;2023-03-23T07:19:23;97983.38;;;15.89;nan
77240;BME280;66258;53.170;-2.240;2023-03-23T07:21:51;97992.22;;;16.28;nan
77240;BME280;66258;53.170;-2.240;2023-03-23T07:24:18;97985.63;;;16.24;nan
77240;BME280;66258;53.170;-2.240;2023-03-23T07:26:44;97986.72;;;16.55;nan
77240;BME280;66258;53.170;-2.240;2023-03-23T07:29:10;97985.91;;;16.55;nan
77240;BME280;66258;53.170;-2.240;2023-03-23T07:31:36;97985.53;;;16.46;nan
77240;BME280;66258;53.170;-2.240;2023-03-23T07:34:02;97983.47;;;16.26;nan
77240;BME280;66258;53.170;-2.240;2023-03-23T07:36:29;97971.50;;;16.32;nan
77240;BME280;66258;53.170;-2.240;2023-03-23T07:38:58;97979.13;;;16.62;nan
77240;BME280;66258;53.170;-2.240;2023-03-23T07:41:24;97979.19;;;17.09;nan
77240;BME280;66258;53.170;-2.240;2023-03-23T07:43:50;97989.19;;;17.46;nan
77240;BME280;66258;53.170;-2.240;2023-03-23T07:46:15;97987.34;;;17.57;nan
77240;BME280;66258;53.170;-2.240;2023-03-23T07:48:41;97994.81;;;17.66;nan
77240;BME280;66258;53.170;-2.240;2023-03-23T07:51:07;97995.09;;;17.75;nan
77240;BME280;66258;53.170;-2.240;2023-03-23T07:53:33;97990.91;;;17.57;nan
77240;BME280;66258;53.170;-2.240;2023-03-23T07:56:02;97989.84;;;17.63;nan
77240;BME280;66258;53.170;-2.240;2023-03-23T07:58:28;97996.28;;;18.14;nan
77240;BME280;66258;53.170;-2.240;2023-03-23T08:00:54;98000.41;;;18.52;nan
77240;BME280;66258;53.170;-2.240;2023-03-23T08:03:20;97996.84;;;18.37;nan
77240;BME280;66258;53.170;-2.240;2023-03-23T08:05:46;97989.97;;;18.09;nan
77240;BME280;66258;53.170;-2.240;2023-03-23T08:08:12;97993.03;;;18.53;nan
77240;BME280;66258;53.170;-2.240;2023-03-23T08:10:38;97992.22;;;18.58;nan
77240;BME280;66258;53.170;-2.240;2023-03-23T08:13:05;97994.13;;;18.52;nan
77240;BME280;66258;53.170;-2.240;2023-03-23T08:15:31;98001.53;;;18.26;nan
77240;BME280;66258;53.170;-2.240;2023-03-23T08:17:58;98001.78;;;18.19;nan
77240;BME280;66258;53.170;-2.240;2023-03-23T08:20:24;98010.53;;;18.22;nan
77240;BME280;66258;53.170;-2.240;2023-03-23T08:22:52;98017.16;;;18.76;nan
77240;BME280;66258;53.170;-2.240;2023-03-23T08:25:18;98022.88;;;19.26;nan
77240;BME280;66258;53.170;-2.240;2023-03-23T08:27:45;98021.16;;;19.45;nan
77240;BME280;66258;53.170;-2.240;2023-03-23T08:30:16;98026.56;;;20.24;nan
77240;BME280;66258;53.170;-2.240;2023-03-23T08:32:43;98026.56;;;20.69;nan
77240;BME280;66258;53.170;-2.240;2023-03-23T08:35:10;98011.19;;;20.23;nan
77240;BME280;66258;53.170;-2.240;2023-03-23T08:37:38;98016.28;;;20.01;nan
77240;BME280;66258;53.170;-2.240;2023-03-23T08:40:07;98020.03;;;19.56;nan
77240;BME280;66258;53.170;-2.240;2023-03-23T08:42:34;98018.47;;;19.19;nan
77240;BME280;66258;53.170;-2.240;2023-03-23T08:45:00;98010.03;;;19.06;nan
77240;BME280;66258;53.170;-2.240;2023-03-23T08:47:28;98017.97;;;18.72;nan
77240;BME280;66258;53.170;-2.240;2023-03-23T08:49:55;98003.16;;;18.52;nan
77240;BME280;66258;53.170;-2.240;2023-03-23T08:52:21;98010.31;;;18.79;nan
77240;BME280;66258;53.170;-2.240;2023-03-23T08:54:47;98009.50;;;18.83;nan
77240;BME280;66258;53.170;-2.240;2023-03-23T08:57:13;98009.66;;;19.53;nan
77240;BME280;66258;53.170;-2.240;2023-03-23T08:59:41;98020.13;;;20.00;nan
77240;BME280;66258;53.170;-2.240;2023-03-23T09:02:10;98006.06;;;20.12;nan
77240;BME280;66258;53.170;-2.240;2023-03-23T09:04:39;98004.44;;;20.11;nan
77240;BME280;66258;53.170;-2.240;2023-03-23T09:07:05;97997.78;;;19.73;nan
77240;BME280;66258;53.170;-2.240;2023-03-23T09:09:32;98001.97;;;19.45;nan
77240;BME280;66258;53.170;-2.240;2023-03-23T09:11:58;98010.34;;;20.28;nan
77240;BME280;66258;53.170;-2.240;2023-03-23T09:14:24;98015.13;;;21.19;nan
77240;BME280;66258;53.170;-2.240;2023-03-23T09:16:50;98019.81;;;21.90;nan
77240;BME280;66258;53.170;-2.240;2023-03-23T09:19:18;98028.94;;;22.47;nan
77240;BME280;66258;53.170;-2.240;2023-03-23T09:21:45;98024.13;;;22.39;nan
77240;BME280;66258;53.170;-2.240;2023-03-23T09:24:11;98015.06;;;21.96;nan
77240;BME280;66258;53.170;-2.240;2023-03-23T09:26:37;98016.84;;;21.63;nan
77240;BME280;66258;53.170;-2.240;2023-03-23T09:29:03;98017.34;;;21.17;nan
77240;BME280;66258;53.170;-2.240;2023-03-23T09:31:29;98027.63;;;20.73;nan
77240;BME280;66258;53.170;-2.240;2023-03-23T09:33:57;98022.19;;;20.68;nan
77240;BME280;66258;53.170;-2.240;2023-03-23T09:36:23;98016.94;;;20.32;nan
77240;BME280;66258;53.170;-2.240;2023-03-23T09:38:53;98029.19;;;19.96;nan
77240;BME280;66258;53.170;-2.240;2023-03-23T09:41:39;98029.28;;;19.85;nan
77240;BME280;66258;53.170;-2.240;2023-03-23T09:44:16;98020.97;;;19.96;nan
77240;BME280;66258;53.170;-2.240;2023-03-23T09:46:52;98021.47;;;20.08;nan
77240;BME280;66258;53.170;-2.240;2023-03-23T09:49:26;98015.91;;;19.64;nan
77240;BME280;66258;53.170;-2.240;2023-03-23T09:51:55;98022.81;;;19.41;nan
77240;BME280;66258;53.170;-2.240;2023-03-23T09:54:26;98035.00;;;18.89;nan
77240;BME280;66258;53.170;-2.240;2023-03-23T09:56:54;98038.28;;;18.66;nan
77240;BME280;66258;53.170;-2.240;2023-03-23T09:59:27;98040.88;;;18.00;nan
77240;BME280;66258;53.170;-2.240;2023-03-23T10:01:58;98020.09;;;18.09;nan
77240;BME280;66258;53.170;-2.240;2023-03-23T10:04:36;98013.56;;;18.20;nan
77240;BME280;66258;53.170;-2.240;2023-03-23T10:07:10;98024.47;;;18.05;nan
77240;BME280;66258;53.170;-2.240;2023-03-23T10:09:39;98028.94;;;18.46;nan
77240;BME280;66258;53.170;-2.240;2023-03-23T10:12:12;98027.75;;;19.39;nan
77240;BME280;66258;53.170;-2.240;2023-03-23T10:14:52;98023.25;;;20.33;nan
77240;BME280;66258;53.170;-2.240;2023-03-23T10:17:28;98027.91;;;20.76;nan
77240;BME280;66258;53.170;-2.240;2023-03-23T10:19:59;98031.50;;;21.35;nan
77240;BME280;66258;53.170;-2.240;2023-03-23T10:22:33;98041.78;;;20.90;nan
77240;BME280;66258;53.170;-2.240;2023-03-23T10:25:15;98023.41;;;20.85;nan
77240;BME280;66258;53.170;-2.240;2023-03-23T10:27:45;98029.97;;;21.18;nan
77240;BME280;66258;53.170;-2.240;2023-03-23T10:30:18;98031.63;;;21.91;nan
77240;BME280;66258;53.170;-2.240;2023-03-23T10:32:50;98036.06;;;20.81;nan
77240;BME280;66258;53.170;-2.240;2023-03-23T10:35:21;98034.78;;;20.74;nan
77240;BME280;66258;53.170;-2.240;2023-03-23T10:37:52;98029.69;;;20.13;nan
77240;BME280;66258;53.170;-2.240;2023-03-23T10:40:25;98027.06;;;19.82;nan
77240;BME280;66258;53.170;-2.240;2023-03-23T10:42:52;98028.03;;;19.42;nan
77240;BME280;66258;53.170;-2.240;2023-03-23T10:45:21;98022.34;;;18.47;nan
77240;BME280;66258;53.170;-2.240;2023-03-23T10:47:52;98029.56;;;17.71;nan
77240;BME280;66258;53.170;-2.240;2023-03-23T10:50:24;98047.16;;;16.64;nan
77240;BME280;66258;53.170;-2.240;2023-03-23T10:52:52;98042.91;;;16.19;nan
77240;BME280;66258;53.170;-2.240;2023-03-23T10:55:20;98057.72;;;16.01;nan
77240;BME280;66258;53.170;-2.240;2023-03-23T10:57:59;98065.66;;;15.81;nan
77240;BME280;66258;53.170;-2.240;2023-03-23T11:00:26;98058.97;;;15.28;nan
77240;BME280;66258;53.170;-2.240;2023-03-23T11:02:58;98058.13;;;15.28;nan
77240;BME280;66258;53.170;-2.240;2023-03-23T11:05:31;98046.97;;;15.90;nan
77240;BME280;66258;53.170;-2.240;2023-03-23T11:08:01;98050.94;;;16.04;nan
77240;BME280;66258;53.170;-2.240;2023-03-23T11:10:34;98055.81;;;16.56;nan
77240;BME280;66258;53.170;-2.240;2023-03-23T11:13:04;98054.38;;;17.59;nan
77240;BME280;66258;53.170;-2.240;2023-03-23T11:15:32;98052.47;;;18.52;nan
77240;BME280;66258;53.170;-2.240;2023-03-23T11:18:00;98054.94;;;19.25;nan
77240;BME280;66258;53.170;-2.240;2023-03-23T11:20:28;98054.72;;;19.11;nan
77240;BME280;66258;53.170;-2.240;2023-03-23T11:22:55;98058.56;;;19.10;nan
77240;BME280;66258;53.170;-2.240;2023-03-23T11:25:21;98053.56;;;18.51;nan
77240;BME280;66258;53.170;-2.240;2023-03-23T11:27:49;98054.03;;;18.03;nan
77240;BME280;66258;53.170;-2.240;2023-03-23T11:30:22;98052.19;;;18.29;nan
77240;BME280;66258;53.170;-2.240;2023-03-23T11:32:51;98047.56;;;18.95;nan
77240;BME280;66258;53.170;-2.240;2023-03-23T11:35:19;98045.75;;;19.80;nan
77240;BME280;66258;53.170;-2.240;2023-03-23T11:37:49;98045.69;;;20.50;nan
77240;BME280;66258;53.170;-2.240;2023-03-23T11:40:18;98038.47;;;20.93;nan
77240;BME280;66258;53.170;-2.240;2023-03-23T11:42:47;98047.16;;;21.05;nan
77240;BME280;66258;53.170;-2.240;2023-03-23T11:45:18;98050.53;;;21.55;nan
77240;BME280;66258;53.170;-2.240;2023-03-23T11:47:54;98043.19;;;21.16;nan
77240;BME280;66258;53.170;-2.240;2023-03-23T11:50:25;98043.03;;;21.37;nan
77240;BME280;66258;53.170;-2.240;2023-03-23T11:52:58;98064.13;;;21.12;nan
77240;BME280;66258;53.170;-2.240;2023-03-23T11:55:30;98048.56;;;20.19;nan
77240;BME280;66258;53.170;-2.240;2023-03-23T11:58:03;98051.97;;;19.11;nan
77240;BME280;66258;53.170;-2.240;2023-03-23T12:00:32;98054.72;;;18.81;nan
77240;BME280;66258;53.170;-2.240;2023-03-23T12:03:30;98054.16;;;19.04;nan
77240;BME280;66258;53.170;-2.240;2023-03-23T12:06:03;98068.69;;;20.10;nan
77240;BME280;66258;53.170;-2.240;2023-03-23T12:08:43;98069.19;;;21.00;nan
77240;BME280;66258;53.170;-2.240;2023-03-23T12:11:20;98075.09;;;21.17;nan
77240;BME280;66258;53.170;-2.240;2023-03-23T12:13:58;98065.16;;;22.22;nan
77240;BME280;66258;53.170;-2.240;2023-03-23T12:16:43;98071.72;;;23.15;nan
77240;BME280;66258;53.170;-2.240;2023-03-23T12:19:21;98064.63;;;23.41;nan
77240;BME280;66258;53.170;-2.240;2023-03-23T12:21:55;98068.13;;;23.47;nan
77240;BME280;66258;53.170;-2.240;2023-03-23T12:24:34;98073.47;;;23.57;nan
77240;BME280;66258;53.170;-2.240;2023-03-23T12:27:08;98068.09;;;24.56;nan
77240;BME280;66258;53.170;-2.240;2023-03-23T12:29:57;98072.84;;;24.78;nan
77240;BME280;66258;53.170;-2.240;2023-03-23T12:32:39;98058.81;;;24.52;nan
77240;BME280;66258;53.170;-2.240;2023-03-23T12:35:33;98057.78;;;25.07;nan
77240;BME280;66258;53.170;-2.240;2023-03-23T12:38:13;98042.72;;;23.17;nan
77240;BME280;66258;53.170;-2.240;2023-03-23T12:40:54;98041.38;;;24.02;nan
77240;BME280;66258;53.170;-2.240;2023-03-23T12:43:30;98039.00;;;24.81;nan
77240;BME280;66258;53.170;-2.240;2023-03-23T12:48:57;98025.56;;;24.66;nan
77240;BME280;66258;53.170;-2.240;2023-03-23T12:51:33;98019.44;;;23.23;nan
77240;BME280;66258;53.170;-2.240;2023-03-23T12:54:08;98024.25;;;24.27;nan
77240;BME280;66258;53.170;-2.240;2023-03-23T12:56:41;98019.66;;;24.09;nan
77240;BME280;66258;53.170;-2.240;2023-03-23T12:59:12;98024.91;;;23.83;nan
77240;BME280;66258;53.170;-2.240;2023-03-23T13:01:43;98011.97;;;22.21;nan
77240;BME280;66258;53.170;-2.240;2023-03-23T13:04:14;98014.63;;;22.08;nan
77240;BME280;66258;53.170;-2.240;2023-03-23T13:06:45;98006.50;;;20.29;nan
77240;BME280;66258;53.170;-2.240;2023-03-23T13:09:19;98024.22;;;20.03;nan
77240;BME280;66258;53.170;-2.240;2023-03-23T13:11:47;98015.44;;;20.06;nan
77240;BME280;66258;53.170;-2.240;2023-03-23T13:14:22;98025.13;;;18.73;nan
77240;BME280;66258;53.170;-2.240;2023-03-23T13:16:55;98011.09;;;18.34;nan
77240;BME280;66258;53.170;-2.240;2023-03-23T13:19:33;98001.00;;;18.49;nan
77240;BME280;66258;53.170;-2.240;2023-03-23T13:22:07;98016.34;;;18.86;nan
77240;BME280;66258;53.170;-2.240;2023-03-23T13:24:38;98023.00;;;20.24;nan
77240;BME280;66258;53.170;-2.240;2023-03-23T13:27:05;98012.81;;;19.80;nan
77240;BME280;66258;53.170;-2.240;2023-03-23T13:29:32;98010.16;;;19.55;nan